sensor_id;sensor_type;location;lat;lon;timestamp;pressure;altitude;pressure_sealevel;temperature;humidity
79077;BME280;68477;42.698;23.342;2023-09-18T00:01:49;95887.91;;;17.03;85.86
79077;BME280;68477;42.698;23.342;2023-09-18T00:04:14;95890.75;;;17.01;86.12
79077;BME280;68477;42.698;23.342;2023-09-18T00:06:40;95882.72;;;16.88;87.11
79077;BME280;68477;42.698;23.342;2023-09-18T00:09:05;95882.06;;;16.86;87.59
79077;BME280;68477;42.698;23.342;2023-09-18T00:11:36;95872.47;;;16.85;87.90
79077;BME280;68477;42.698;23.342;2023-09-18T00:14:01;95876.75;;;16.86;87.40
79077;BME280;68477;42.698;23.342;2023-09-18T00:16:28;95878.03;;;16.97;86.82
79077;BME280;68477;42.698;23.342;2023-09-18T00:18:53;95876.00;;;16.92;86.75
79077;BME280;68477;42.698;23.342;2023-09-18T00:21:19;95873.59;;;17.04;85.95
79077;BME280;68477;42.698;23.342;2023-09-18T00:23:44;95878.25;;;16.95;86.63
79077;BME280;68477;42.698;23.342;2023-09-18T00:26:12;95878.28;;;17.02;85.83
79077;BME280;68477;42.698;23.342;2023-09-18T00:28:38;95886.00;;;16.97;86.33
79077;BME280;68477;42.698;23.342;2023-09-18T00:31:03;95879.94;;;17.09;85.08
79077;BME280;68477;42.698;23.342;2023-09-18T00:33:29;95882.53;;;16.96;85.35
79077;BME280;68477;42.698;23.342;2023-09-18T00:35:54;95880.53;;;17.05;85.62
79077;BME280;68477;42.698;23.342;2023-09-18T00:38:20;95890.56;;;17.03;85.07
79077;BME280;68477;42.698;23.342;2023-09-18T00:40:45;95882.19;;;17.06;84.78
79077;BME280;68477;42.698;23.342;2023-09-18T00:43:11;95887.91;;;17.03;84.56
79077;BME280;68477;42.698;23.342;2023-09-18T00:45:42;95890.34;;;17.04;84.74
79077;BME280;68477;42.698;23.342;2023-09-18T00:48:09;95878.56;;;17.20;84.66
79077;BME280;68477;42.698;23.342;2023-09-18T00:50:36;95891.19;;;17.05;84.64
79077;BME280;68477;42.698;23.342;2023-09-18T00:53:02;95888.09;;;17.01;86.10
79077;BME280;68477;42.698;23.342;2023-09-18T00:55:29;95889.13;;;17.07;85.15
79077;BME280;68477;42.698;23.342;2023-09-18T00:57:56;95892.25;;;17.10;85.68
79077;BME280;68477;42.698;23.342;2023-09-18T01:00:22;95898.19;;;17.12;85.21
79077;BME280;68477;42.698;23.342;2023-09-18T01:02:48;95892.25;;;17.10;85.43
79077;BME280;68477;42.698;23.342;2023-09-18T01:05:14;95899.22;;;17.18;84.53
79077;BME280;68477;42.698;23.342;2023-09-18T01:07:42;95894.06;;;17.10;85.16
79077;BME280;68477;42.698;23.342;2023-09-18T01:10:08;95902.41;;;17.00;86.00
79077;BME280;68477;42.698;23.342;2023-09-18T01:12:46;95897.56;;;17.10;85.13
79077;BME280;68477;42.698;23.342;2023-09-18T01:15:17;95893.63;;;17.06;84.26
79077;BME280;68477;42.698;23.342;2023-09-18T01:17:44;95892.00;;;17.05;84.01
79077;BME280;68477;42.698;23.342;2023-09-18T01:20:12;95898.47;;;16.90;84.95
79077;BME280;68477;42.698;23.342;2023-09-18T01:22:37;95894.53;;;16.85;84.87
79077;BME280;68477;42.698;23.342;2023-09-18T01:25:08;95896.44;;;16.98;84.53
79077;BME280;68477;42.698;23.342;2023-09-18T01:27:33;95892.91;;;16.84;85.24
79077;BME280;68477;42.698;23.342;2023-09-18T01:29:59;95891.50;;;16.88;85.54
79077;BME280;68477;42.698;23.342;2023-09-18T01:32:26;95893.16;;;16.90;85.58
79077;BME280;68477;42.698;23.342;2023-09-18T01:34:55;95891.13;;;16.98;84.44
79077;BME280;68477;42.698;23.342;2023-09-18T01:37:25;95890.50;;;16.90;84.07
79077;BME280;68477;42.698;23.342;2023-09-18T01:39:52;95892.34;;;16.96;84.18
79077;BME280;68477;42.698;23.342;2023-09-18T01:42:23;95889.00;;;16.80;84.60
79077;BME280;68477;42.698;23.342;2023-09-18T01:44:48;95899.34;;;16.69;84.78
79077;BME280;68477;42.698;23.342;2023-09-18T01:47:16;95887.69;;;16.70;84.89
79077;BME280;68477;42.698;23.342;2023-09-18T01:49:43;95886.88;;;16.69;84.92
79077;BME280;68477;42.698;23.342;2023-09-18T01:52:08;95897.22;;;16.64;85.04
79077;BME280;68477;42.698;23.342;2023-09-18T01:54:34;95892.81;;;16.71;84.72
79077;BME280;68477;42.698;23.342;2023-09-18T01:57:01;95896.81;;;16.88;83.82
79077;BME280;68477;42.698;23.342;2023-09-18T01:59:26;95902.22;;;16.74;83.97
79077;BME280;68477;42.698;23.342;2023-09-18T02:01:53;95897.38;;;16.84;83.24
79077;BME280;68477;42.698;23.342;2023-09-18T02:04:19;95910.47;;;16.85;83.33
79077;BME280;68477;42.698;23.342;2023-09-18T02:06:45;95909.84;;;16.83;83.64
79077;BME280;68477;42.698;23.342;2023-09-18T02:09:11;95908.28;;;16.89;83.24
79077;BME280;68477;42.698;23.342;2023-09-18T02:11:38;95899.44;;;16.82;83.63
79077;BME280;68477;42.698;23.342;2023-09-18T02:14:04;95902.31;;;16.87;83.27
79077;BME280;68477;42.698;23.342;2023-09-18T02:16:31;95905.56;;;16.82;83.06
79077;BME280;68477;42.698;23.342;2023-09-18T02:18:57;95905.63;;;16.89;83.45
79077;BME280;68477;42.698;23.342;2023-09-18T02:21:23;95901.69;;;16.85;82.99
79077;BME280;68477;42.698;23.342;2023-09-18T02:23:52;95908.91;;;16.91;82.75
79077;BME280;68477;42.698;23.342;2023-09-18T02:26:18;95905.13;;;16.79;83.20
79077;BME280;68477;42.698;23.342;2023-09-18T02:28:44;95906.78;;;16.80;83.16
79077;BME280;68477;42.698;23.342;2023-09-18T02:31:11;95907.34;;;16.75;84.00
79077;BME280;68477;42.698;23.342;2023-09-18T02:33:37;95908.75;;;16.71;83.62
79077;BME280;68477;42.698;23.342;2023-09-18T02:36:03;95910.06;;;16.60;84.48
79077;BME280;68477;42.698;23.342;2023-09-18T02:38:29;95911.16;;;16.66;83.68
79077;BME280;68477;42.698;23.342;2023-09-18T02:40:58;95908.63;;;16.58;84.29
79077;BME280;68477;42.698;23.342;2023-09-18T02:43:23;95910.06;;;16.60;83.80
79077;BME280;68477;42.698;23.342;2023-09-18T02:45:49;95899.97;;;16.71;83.55
79077;BME280;68477;42.698;23.342;2023-09-18T02:48:16;95900.81;;;16.50;84.43
79077;BME280;68477;42.698;23.342;2023-09-18T02:50:41;95908.22;;;16.54;84.30
79077;BME280;68477;42.698;23.342;2023-09-18T02:53:12;95905.50;;;16.48;84.09
79077;BME280;68477;42.698;23.342;2023-09-18T02:55:41;95907.13;;;16.49;84.36
79077;BME280;68477;42.698;23.342;2023-09-18T02:58:06;95904.44;;;16.42;84.89
79077;BME280;68477;42.698;23.342;2023-09-18T03:00:34;95906.63;;;16.39;84.99
79077;BME280;68477;42.698;23.342;2023-09-18T03:02:59;95911.91;;;16.32;85.35
79077;BME280;68477;42.698;23.342;2023-09-18T03:05:25;95912.31;;;16.57;83.53
79077;BME280;68477;42.698;23.342;2023-09-18T03:07:51;95914.88;;;16.44;84.38
79077;BME280;68477;42.698;23.342;2023-09-18T03:10:16;95916.63;;;16.37;84.99
79077;BME280;68477;42.698;23.342;2023-09-18T03:12:47;95908.44;;;16.32;84.77
79077;BME280;68477;42.698;23.342;2023-09-18T03:15:12;95914.94;;;16.29;85.25
79077;BME280;68477;42.698;23.342;2023-09-18T03:17:38;95918.41;;;16.29;85.42
79077;BME280;68477;42.698;23.342;2023-09-18T03:20:06;95908.75;;;16.22;86.00
79077;BME280;68477;42.698;23.342;2023-09-18T03:22:32;95903.66;;;16.20;85.69
79077;BME280;68477;42.698;23.342;2023-09-18T03:24:59;95916.47;;;16.17;85.99
79077;BME280;68477;42.698;23.342;2023-09-18T03:27:24;95905.66;;;16.18;85.73
79077;BME280;68477;42.698;23.342;2023-09-18T03:29:56;95901.81;;;16.21;85.90
79077;BME280;68477;42.698;23.342;2023-09-18T03:32:22;95899.09;;;16.14;85.90
79077;BME280;68477;42.698;23.342;2023-09-18T03:34:50;95900.81;;;16.22;85.71
79077;BME280;68477;42.698;23.342;2023-09-18T03:37:16;95896.59;;;16.34;85.17
79077;BME280;68477;42.698;23.342;2023-09-18T03:39:41;95899.50;;;16.18;85.40
79077;BME280;68477;42.698;23.342;2023-09-18T03:42:06;95897.31;;;16.21;86.04
79077;BME280;68477;42.698;23.342;2023-09-18T03:44:32;95893.69;;;16.29;85.72
79077;BME280;68477;42.698;23.342;2023-09-18T03:46:58;95896.50;;;16.21;85.71
79077;BME280;68477;42.698;23.342;2023-09-18T03:49:24;95891.56;;;16.18;85.42
79077;BME280;68477;42.698;23.342;2023-09-18T03:51:49;95886.13;;;16.26;85.01
79077;BME280;68477;42.698;23.342;2023-09-18T03:54:15;95891.81;;;16.23;85.43
79077;BME280;68477;42.698;23.342;2023-09-18T03:56:40;95889.16;;;16.23;86.09
79077;BME280;68477;42.698;23.342;2023-09-18T03:59:07;95891.13;;;16.14;85.82
79077;BME280;68477;42.698;23.342;2023-09-18T04:01:32;95890.19;;;16.00;86.50
79077;BME280;68477;42.698;23.342;2023-09-18T04:03:58;95879.75;;;16.20;85.57
79077;BME280;68477;42.698;23.342;2023-09-18T04:06:23;95892.66;;;16.02;86.32
79077;BME280;68477;42.698;23.342;2023-09-18T04:08:52;95893.59;;;15.94;86.85
79077;BME280;68477;42.698;23.342;2023-09-18T04:11:17;95887.47;;;15.94;86.69
79077;BME280;68477;42.698;23.342;2023-09-18T04:13:45;95895.38;;;16.09;86.13
79077;BME280;68477;42.698;23.342;2023-09-18T04:16:10;95888.47;;;15.93;86.27
79077;BME280;68477;42.698;23.342;2023-09-18T04:18:38;95891.13;;;15.93;86.70
79077;BME280;68477;42.698;23.342;2023-09-18T04:21:04;95896.50;;;15.99;86.22
79077;BME280;68477;42.698;23.342;2023-09-18T04:23:29;95899.22;;;16.06;86.01
79077;BME280;68477;42.698;23.342;2023-09-18T04:25:55;95897.81;;;16.32;85.56
79077;BME280;68477;42.698;23.342;2023-09-18T04:28:23;95909.50;;;16.16;85.74
79077;BME280;68477;42.698;23.342;2023-09-18T04:30:49;95904.91;;;16.24;84.82
79077;BME280;68477;42.698;23.342;2023-09-18T04:33:15;95900.22;;;16.26;85.30
79077;BME280;68477;42.698;23.342;2023-09-18T04:35:40;95899.59;;;16.03;86.16
79077;BME280;68477;42.698;23.342;2023-09-18T04:38:07;95906.84;;;15.94;87.03
79077;BME280;68477;42.698;23.342;2023-09-18T04:40:34;95909.91;;;16.13;86.07
79077;BME280;68477;42.698;23.342;2023-09-18T04:43:00;95906.41;;;16.34;85.03
79077;BME280;68477;42.698;23.342;2023-09-18T04:45:26;95908.25;;;16.33;85.36
79077;BME280;68477;42.698;23.342;2023-09-18T04:47:52;95910.09;;;16.11;85.43
79077;BME280;68477;42.698;23.342;2023-09-18T04:50:18;95909.06;;;16.12;85.77
79077;BME280;68477;42.698;23.342;2023-09-18T04:52:44;95906.50;;;15.97;86.24
79077;BME280;68477;42.698;23.342;2023-09-18T04:55:10;95910.78;;;15.98;86.54
79077;BME280;68477;42.698;23.342;2023-09-18T04:57:36;95908.56;;;16.23;85.54
79077;BME280;68477;42.698;23.342;2023-09-18T05:00:02;95902.56;;;16.15;85.96
79077;BME280;68477;42.698;23.342;2023-09-18T05:02:28;95895.41;;;16.15;85.40
79077;BME280;68477;42.698;23.342;2023-09-18T05:04:56;95895.41;;;16.15;85.28
79077;BME280;68477;42.698;23.342;2023-09-18T05:07:21;95898.16;;;16.50;84.54
79077;BME280;68477;42.698;23.342;2023-09-18T05:09:47;95896.72;;;16.47;83.67
79077;BME280;68477;42.698;23.342;2023-09-18T05:12:12;95893.72;;;16.57;82.95
79077;BME280;68477;42.698;23.342;2023-09-18T05:14:41;95897.63;;;16.61;83.19
79077;BME280;68477;42.698;23.342;2023-09-18T05:17:09;95898.22;;;16.56;83.12
79077;BME280;68477;42.698;23.342;2023-09-18T05:19:35;95897.59;;;16.54;83.13
79077;BME280;68477;42.698;23.342;2023-09-18T05:22:01;95907.03;;;16.64;82.82
79077;BME280;68477;42.698;23.342;2023-09-18T05:24:26;95904.81;;;16.95;81.64
79077;BME280;68477;42.698;23.342;2023-09-18T05:26:53;95904.31;;;16.78;82.31
79077;BME280;68477;42.698;23.342;2023-09-18T05:29:19;95916.91;;;17.39;79.44
79077;BME280;68477;42.698;23.342;2023-09-18T05:31:45;95910.25;;;17.56;79.06
79077;BME280;68477;42.698;23.342;2023-09-18T05:34:11;95905.50;;;17.45;79.30
79077;BME280;68477;42.698;23.342;2023-09-18T05:36:37;95913.06;;;17.55;79.64
79077;BME280;68477;42.698;23.342;2023-09-18T05:39:02;95908.97;;;17.45;79.39
79077;BME280;68477;42.698;23.342;2023-09-18T05:41:28;95917.00;;;17.65;78.86
79077;BME280;68477;42.698;23.342;2023-09-18T05:43:55;95910.78;;;17.38;78.87
79077;BME280;68477;42.698;23.342;2023-09-18T05:46:21;95915.84;;;17.74;78.40
79077;BME280;68477;42.698;23.342;2023-09-18T05:48:46;95913.28;;;18.27;76.30
79077;BME280;68477;42.698;23.342;2023-09-18T05:51:12;95921.69;;;18.24;76.00
79077;BME280;68477;42.698;23.342;2023-09-18T05:53:37;95922.25;;;18.07;76.50
79077;BME280;68477;42.698;23.342;2023-09-18T05:56:03;95921.06;;;18.16;75.97
79077;BME280;68477;42.698;23.342;2023-09-18T05:58:32;95922.47;;;18.05;76.16
79077;BME280;68477;42.698;23.342;2023-09-18T06:01:00;95928.66;;;18.25;75.48
79077;BME280;68477;42.698;23.342;2023-09-18T06:03:26;95921.69;;;18.57;74.35
79077;BME280;68477;42.698;23.342;2023-09-18T06:05:52;95917.41;;;18.76;73.47
79077;BME280;68477;42.698;23.342;2023-09-18T06:08:17;95913.06;;;18.62;73.49
79077;BME280;68477;42.698;23.342;2023-09-18T06:10:44;95919.03;;;18.57;74.07
79077;BME280;68477;42.698;23.342;2023-09-18T06:13:10;95923.53;;;18.44;74.81
79077;BME280;68477;42.698;23.342;2023-09-18T06:15:35;95912.66;;;18.52;74.09
79077;BME280;68477;42.698;23.342;2023-09-18T06:18:01;95915.94;;;18.87;73.00
79077;BME280;68477;42.698;23.342;2023-09-18T06:20:27;95921.06;;;18.95;72.58
79077;BME280;68477;42.698;23.342;2023-09-18T06:22:52;95927.66;;;18.93;72.74
79077;BME280;68477;42.698;23.342;2023-09-18T06:25:18;95923.47;;;19.23;71.14
79077;BME280;68477;42.698;23.342;2023-09-18T06:27:45;95928.25;;;20.04;68.76
79077;BME280;68477;42.698;23.342;2023-09-18T06:30:11;95915.56;;;19.61;68.43
79077;BME280;68477;42.698;23.342;2023-09-18T06:32:37;95922.88;;;19.79;68.53
79077;BME280;68477;42.698;23.342;2023-09-18T06:35:03;95924.56;;;20.43;66.42
79077;BME280;68477;42.698;23.342;2023-09-18T06:37:28;95928.31;;;21.29;63.54
79077;BME280;68477;42.698;23.342;2023-09-18T06:39:55;95927.81;;;20.14;66.26
79077;BME280;68477;42.698;23.342;2023-09-18T06:42:22;95921.97;;;20.30;65.97
79077;BME280;68477;42.698;23.342;2023-09-18T06:44:47;95928.91;;;19.99;67.15
79077;BME280;68477;42.698;23.342;2023-09-18T06:47:13;95929.50;;;20.08;67.30
79077;BME280;68477;42.698;23.342;2023-09-18T06:49:40;95924.63;;;20.61;64.89
79077;BME280;68477;42.698;23.342;2023-09-18T06:52:07;95928.59;;;20.52;65.33
79077;BME280;68477;42.698;23.342;2023-09-18T06:54:32;95928.41;;;20.16;65.97
79077;BME280;68477;42.698;23.342;2023-09-18T06:56:58;95928.09;;;20.87;64.26
79077;BME280;68477;42.698;23.342;2023-09-18T06:59:23;95932.69;;;20.80;64.14
79077;BME280;68477;42.698;23.342;2023-09-18T07:01:49;95923.06;;;22.07;60.44
79077;BME280;68477;42.698;23.342;2023-09-18T07:04:14;95925.31;;;21.92;60.05
79077;BME280;68477;42.698;23.342;2023-09-18T07:06:40;95918.94;;;21.19;61.58
79077;BME280;68477;42.698;23.342;2023-09-18T07:09:06;95928.28;;;20.67;64.45
79077;BME280;68477;42.698;23.342;2023-09-18T07:11:33;95920.75;;;21.44;62.58
79077;BME280;68477;42.698;23.342;2023-09-18T07:13:59;95924.81;;;21.28;61.47
79077;BME280;68477;42.698;23.342;2023-09-18T07:16:25;95922.63;;;21.92;59.78
79077;BME280;68477;42.698;23.342;2023-09-18T07:18:50;95925.94;;;22.05;59.45
79077;BME280;68477;42.698;23.342;2023-09-18T07:21:16;95922.97;;;22.14;58.64
79077;BME280;68477;42.698;23.342;2023-09-18T07:23:41;95923.91;;;21.89;59.01
79077;BME280;68477;42.698;23.342;2023-09-18T07:26:07;95923.31;;;21.87;59.66
79077;BME280;68477;42.698;23.342;2023-09-18T07:28:32;95929.38;;;21.64;59.89
79077;BME280;68477;42.698;23.342;2023-09-18T07:31:04;95927.22;;;22.21;59.19
79077;BME280;68477;42.698;23.342;2023-09-18T07:33:30;95925.88;;;21.45;61.23
79077;BME280;68477;42.698;23.342;2023-09-18T07:35:56;95929.66;;;21.38;61.07
79077;BME280;68477;42.698;23.342;2023-09-18T07:38:21;95929.81;;;22.40;57.66
79077;BME280;68477;42.698;23.342;2023-09-18T07:40:46;95931.19;;;22.42;57.90
79077;BME280;68477;42.698;23.342;2023-09-18T07:43:12;95925.69;;;22.25;58.53
79077;BME280;68477;42.698;23.342;2023-09-18T07:45:38;95925.22;;;22.82;56.24
79077;BME280;68477;42.698;23.342;2023-09-18T07:48:08;95925.19;;;22.58;56.33
79077;BME280;68477;42.698;23.342;2023-09-18T07:50:37;95930.22;;;22.66;56.40
79077;BME280;68477;42.698;23.342;2023-09-18T07:53:02;95925.66;;;22.14;57.75
79077;BME280;68477;42.698;23.342;2023-09-18T07:55:28;95925.06;;;22.65;56.14
79077;BME280;68477;42.698;23.342;2023-09-18T07:57:55;95918.31;;;22.62;55.73
79077;BME280;68477;42.698;23.342;2023-09-18T08:00:23;95917.53;;;23.09;54.87
79077;BME280;68477;42.698;23.342;2023-09-18T08:02:51;95924.06;;;23.60;53.51
79077;BME280;68477;42.698;23.342;2023-09-18T08:05:19;95918.53;;;23.66;52.61
79077;BME280;68477;42.698;23.342;2023-09-18T08:07:45;95923.25;;;23.59;52.78
79077;BME280;68477;42.698;23.342;2023-09-18T08:10:12;95903.06;;;23.21;53.39
79077;BME280;68477;42.698;23.342;2023-09-18T08:12:38;95912.88;;;23.04;54.16
79077;BME280;68477;42.698;23.342;2023-09-18T08:15:03;95912.66;;;23.06;53.78
79077;BME280;68477;42.698;23.342;2023-09-18T08:17:30;95915.19;;;23.59;52.24
79077;BME280;68477;42.698;23.342;2023-09-18T08:19:56;95913.81;;;23.33;53.25
79077;BME280;68477;42.698;23.342;2023-09-18T08:22:23;95913.06;;;23.61;53.13
79077;BME280;68477;42.698;23.342;2023-09-18T08:24:49;95913.06;;;23.90;52.08
79077;BME280;68477;42.698;23.342;2023-09-18T08:27:19;95905.59;;;23.63;51.68
79077;BME280;68477;42.698;23.342;2023-09-18T08:29:47;95909.03;;;24.61;49.72
79077;BME280;68477;42.698;23.342;2023-09-18T08:32:13;95905.63;;;23.28;53.15
79077;BME280;68477;42.698;23.342;2023-09-18T08:34:39;95902.38;;;23.78;51.17
79077;BME280;68477;42.698;23.342;2023-09-18T08:37:04;95911.41;;;24.00;50.52
79077;BME280;68477;42.698;23.342;2023-09-18T08:39:30;95897.84;;;24.35;49.35
79077;BME280;68477;42.698;23.342;2023-09-18T08:41:59;95903.78;;;24.54;49.03
79077;BME280;68477;42.698;23.342;2023-09-18T08:44:27;95896.97;;;24.18;50.23
79077;BME280;68477;42.698;23.342;2023-09-18T08:46:56;95892.28;;;23.68;50.71
79077;BME280;68477;42.698;23.342;2023-09-18T08:49:23;95881.78;;;24.57;48.78
79077;BME280;68477;42.698;23.342;2023-09-18T08:51:51;95888.53;;;24.93;47.67
79077;BME280;68477;42.698;23.342;2023-09-18T08:54:18;95877.28;;;25.35;47.57
79077;BME280;68477;42.698;23.342;2023-09-18T08:56:44;95890.28;;;24.49;50.00
79077;BME280;68477;42.698;23.342;2023-09-18T08:59:12;95881.34;;;24.99;47.59
79077;BME280;68477;42.698;23.342;2023-09-18T09:01:38;95887.47;;;24.94;48.63
79077;BME280;68477;42.698;23.342;2023-09-18T09:04:04;95879.41;;;24.78;48.49
79077;BME280;68477;42.698;23.342;2023-09-18T09:06:30;95872.53;;;25.42;46.70
79077;BME280;68477;42.698;23.342;2023-09-18T09:08:55;95874.25;;;25.48;46.58
79077;BME280;68477;42.698;23.342;2023-09-18T09:11:21;95874.88;;;26.04;45.28
79077;BME280;68477;42.698;23.342;2023-09-18T09:13:46;95876.88;;;25.65;44.33
79077;BME280;68477;42.698;23.342;2023-09-18T09:16:13;95882.97;;;26.04;43.79
79077;BME280;68477;42.698;23.342;2023-09-18T09:18:50;95872.16;;;26.95;42.87
79077;BME280;68477;42.698;23.342;2023-09-18T09:21:16;95878.94;;;25.80;44.43
79077;BME280;68477;42.698;23.342;2023-09-18T09:23:50;95868.00;;;25.92;44.40
79077;BME280;68477;42.698;23.342;2023-09-18T09:26:22;95867.41;;;25.63;45.16
79077;BME280;68477;42.698;23.342;2023-09-18T09:28:49;95864.53;;;26.18;43.80
79077;BME280;68477;42.698;23.342;2023-09-18T09:31:29;95865.28;;;27.10;42.68
79077;BME280;68477;42.698;23.342;2023-09-18T09:33:55;95865.31;;;25.92;42.47
79077;BME280;68477;42.698;23.342;2023-09-18T09:36:22;95868.72;;;25.60;42.95
79077;BME280;68477;42.698;23.342;2023-09-18T09:38:49;95864.09;;;26.04;42.04
79077;BME280;68477;42.698;23.342;2023-09-18T09:41:19;95859.25;;;25.79;43.49
79077;BME280;68477;42.698;23.342;2023-09-18T09:43:44;95855.00;;;25.62;44.90
79077;BME280;68477;42.698;23.342;2023-09-18T09:46:16;95852.25;;;25.78;43.98
79077;BME280;68477;42.698;23.342;2023-09-18T09:49:05;95849.56;;;26.64;42.55
79077;BME280;68477;42.698;23.342;2023-09-18T09:51:31;95844.66;;;26.61;42.02
79077;BME280;68477;42.698;23.342;2023-09-18T09:53:57;95844.72;;;25.37;45.14
79077;BME280;68477;42.698;23.342;2023-09-18T09:56:47;95844.19;;;26.05;43.34
79077;BME280;68477;42.698;23.342;2023-09-18T09:59:14;95849.75;;;26.53;41.31
79077;BME280;68477;42.698;23.342;2023-09-18T10:01:41;95839.75;;;26.95;39.95
79077;BME280;68477;42.698;23.342;2023-09-18T10:04:17;95843.09;;;26.65;40.34
79077;BME280;68477;42.698;23.342;2023-09-18T10:06:51;95831.56;;;25.62;42.99
79077;BME280;68477;42.698;23.342;2023-09-18T10:09:39;95833.63;;;26.63;41.40
79077;BME280;68477;42.698;23.342;2023-09-18T10:12:11;95831.00;;;26.73;41.09
79077;BME280;68477;42.698;23.342;2023-09-18T10:14:37;95827.16;;;26.64;41.74
79077;BME280;68477;42.698;23.342;2023-09-18T10:17:14;95835.16;;;26.91;39.35
79077;BME280;68477;42.698;23.342;2023-09-18T10:22:30;95830.25;;;27.25;38.58
79077;BME280;68477;42.698;23.342;2023-09-18T10:25:17;95825.06;;;27.13;38.19
79077;BME280;68477;42.698;23.342;2023-09-18T10:27:49;95824.16;;;26.97;38.72
79077;BME280;68477;42.698;23.342;2023-09-18T10:30:16;95808.09;;;27.23;38.26
79077;BME280;68477;42.698;23.342;2023-09-18T10:32:45;95816.31;;;27.53;37.78
79077;BME280;68477;42.698;23.342;2023-09-18T10:35:13;95802.88;;;27.74;36.75
79077;BME280;68477;42.698;23.342;2023-09-18T10:37:41;95804.56;;;28.00;37.13
79077;BME280;68477;42.698;23.342;2023-09-18T10:40:09;95801.19;;;27.63;37.27
79077;BME280;68477;42.698;23.342;2023-09-18T10:42:37;95793.75;;;28.61;35.62
79077;BME280;68477;42.698;23.342;2023-09-18T10:45:03;95797.19;;;27.65;37.33
79077;BME280;68477;42.698;23.342;2023-09-18T10:47:30;95794.31;;;28.89;35.57
79077;BME280;68477;42.698;23.342;2023-09-18T10:49:56;95798.34;;;28.81;35.42
79077;BME280;68477;42.698;23.342;2023-09-18T10:52:21;95795.13;;;28.89;35.16
79077;BME280;68477;42.698;23.342;2023-09-18T10:54:47;95784.03;;;28.30;36.07
79077;BME280;68477;42.698;23.342;2023-09-18T10:57:13;95783.75;;;28.62;35.73
79077;BME280;68477;42.698;23.342;2023-09-18T10:59:44;95782.63;;;27.92;37.05
79077;BME280;68477;42.698;23.342;2023-09-18T11:02:10;95774.84;;;28.41;36.23
79077;BME280;68477;42.698;23.342;2023-09-18T11:04:35;95772.78;;;29.23;34.75
79077;BME280;68477;42.698;23.342;2023-09-18T11:07:02;95775.25;;;29.14;34.32
79077;BME280;68477;42.698;23.342;2023-09-18T11:09:30;95771.22;;;29.12;35.12
79077;BME280;68477;42.698;23.342;2023-09-18T11:14:42;95772.44;;;29.40;32.94
79077;BME280;68477;42.698;23.342;2023-09-18T11:17:38;95770.34;;;29.21;32.50
79077;BME280;68477;42.698;23.342;2023-09-18T11:20:17;95762.06;;;30.06;31.68
79077;BME280;68477;42.698;23.342;2023-09-18T11:22:58;95763.13;;;27.69;35.64
79077;BME280;68477;42.698;23.342;2023-09-18T11:25:36;95760.53;;;29.31;33.50
79077;BME280;68477;42.698;23.342;2023-09-18T11:28:24;95750.97;;;29.98;31.70
79077;BME280;68477;42.698;23.342;2023-09-18T11:30:54;95750.50;;;29.85;32.19
79077;BME280;68477;42.698;23.342;2023-09-18T11:35:55;95738.44;;;29.68;32.30
79077;BME280;68477;42.698;23.342;2023-09-18T11:38:21;95737.50;;;29.33;32.86
79077;BME280;68477;42.698;23.342;2023-09-18T11:40:48;95739.59;;;29.51;32.72
79077;BME280;68477;42.698;23.342;2023-09-18T11:43:25;95736.94;;;28.56;34.23
79077;BME280;68477;42.698;23.342;2023-09-18T11:45:57;95733.44;;;29.31;33.94
79077;BME280;68477;42.698;23.342;2023-09-18T11:48:23;95739.00;;;30.38;31.73
79077;BME280;68477;42.698;23.342;2023-09-18T11:50:53;95729.84;;;30.87;30.95
79077;BME280;68477;42.698;23.342;2023-09-18T11:53:20;95725.09;;;30.10;31.66
79077;BME280;68477;42.698;23.342;2023-09-18T11:55:46;95730.00;;;30.71;30.77
79077;BME280;68477;42.698;23.342;2023-09-18T11:58:12;95729.31;;;31.09;30.59
79077;BME280;68477;42.698;23.342;2023-09-18T12:00:38;95724.78;;;29.28;33.96
79077;BME280;68477;42.698;23.342;2023-09-18T12:03:18;95722.06;;;26.99;36.56
79077;BME280;68477;42.698;23.342;2023-09-18T12:06:02;95720.94;;;26.90;38.20
79077;BME280;68477;42.698;23.342;2023-09-18T12:08:30;95730.44;;;28.06;36.90
79077;BME280;68477;42.698;23.342;2023-09-18T12:10:57;95725.56;;;30.52;32.96
79077;BME280;68477;42.698;23.342;2023-09-18T12:13:26;95725.59;;;30.18;32.46
79077;BME280;68477;42.698;23.342;2023-09-18T12:15:58;95723.00;;;30.89;31.18
79077;BME280;68477;42.698;23.342;2023-09-18T12:18:25;95722.56;;;30.24;32.52
79077;BME280;68477;42.698;23.342;2023-09-18T12:20:54;95714.22;;;28.22;36.03
79077;BME280;68477;42.698;23.342;2023-09-18T12:23:21;95711.41;;;27.35;37.45
79077;BME280;68477;42.698;23.342;2023-09-18T12:25:49;95714.81;;;27.05;38.33
79077;BME280;68477;42.698;23.342;2023-09-18T12:28:16;95716.00;;;27.35;38.44
79077;BME280;68477;42.698;23.342;2023-09-18T12:30:45;95710.56;;;29.03;34.01
79077;BME280;68477;42.698;23.342;2023-09-18T12:33:12;95710.66;;;30.20;32.93
79077;BME280;68477;42.698;23.342;2023-09-18T12:35:40;95704.53;;;30.04;32.27
79077;BME280;68477;42.698;23.342;2023-09-18T12:38:19;95701.91;;;30.28;31.91
79077;BME280;68477;42.698;23.342;2023-09-18T12:40:55;95711.22;;;29.78;32.06
79077;BME280;68477;42.698;23.342;2023-09-18T12:43:21;95707.09;;;30.78;30.95
79077;BME280;68477;42.698;23.342;2023-09-18T12:45:48;95711.47;;;31.26;29.46
79077;BME280;68477;42.698;23.342;2023-09-18T12:48:14;95712.50;;;28.82;33.79
79077;BME280;68477;42.698;23.342;2023-09-18T12:50:41;95709.88;;;28.26;34.43
79077;BME280;68477;42.698;23.342;2023-09-18T12:53:11;95699.78;;;30.20;31.31
79077;BME280;68477;42.698;23.342;2023-09-18T12:55:37;95702.78;;;30.77;30.63
79077;BME280;68477;42.698;23.342;2023-09-18T12:58:03;95698.16;;;30.77;30.27
79077;BME280;68477;42.698;23.342;2023-09-18T13:00:34;95694.06;;;31.04;30.54